WEATHER DATA

YESTERDAY
Time Temp. Dewp. Hum. Wind dir Wind speed Wind gust Bar. 1h Prec. 24h Prec.
00:05 15.6 13.6 88 227 1.1 1.4 1016.8 0.0000 0.0000
00:16 15.7 13.7 88 217 1.1 1.9 1016.9 0.0000 0.0000
00:26 15.8 13.8 88 217 1.1 2.2 1016.9 0.1250 0.1000
00:36 15.8 13.6 87 221 1.1 1.9 1016.7 0.2500 0.3000
00:46 15.8 13.6 87 220 0.8 1.9 1016.6 0.2500 0.3000
00:56 15.7 13.7 88 225 0.8 1.9 1016.3 0.2500 0.3000
01:06 15.6 13.6 88 220 0.8 1.4 1016.2 0.2500 0.3000
01:16 15.5 13.3 87 225 0.8 1.4 1016.2 0.2500 0.3000
01:26 15.2 13.1 87 225 0.8 1.4 1016.1 0.1250 0.3000
01:36 15 13 88 222 0.8 1.4 1016.1 0.0000 0.3000
01:46 14.8 12.8 88 225 0.8 1.1 1016.1 0.0000 0.3000
01:56 14.7 12.7 88 220 0.8 1.9 1016.4 0.0000 0.3000
02:07 14.6 12.6 88 225 0.8 1.4 1016.3 0.0000 0.3000
02:17 14.4 12.4 88 218 0.8 1.4 1016.4 0.0000 0.3000
02:26 14.3 12.3 88 225 0.8 1.9 1016.3 0.0000 0.3000
02:37 14 12 88 222 0.8 1.9 1016.3 0.0000 0.3000
02:47 13.9 12.1 89 231 0.8 1.4 1016.4 0.0000 0.3000
02:57 13.7 11.9 89 192 0.8 1.4 1016.5 0.0000 0.3000
03:07 13.6 11.8 89 222 0.8 1.4 1016.6 0.0000 0.3000
03:17 13.5 11.9 90 222 0.8 1.4 1016.6 0.0000 0.3000
03:27 13.3 11.7 90 225 0.8 1.4 1016.6 0.0000 0.3000
03:37 13.1 11.5 90 225 0.8 1.4 1016.7 0.0000 0.3000
03:47 13 11.4 90 225 0.8 1.4 1016.7 0.0000 0.3000
03:58 13 11.4 90 222 0.8 1.4 1016.7 0.0000 0.3000
04:07 12.9 11.3 90 225 0.8 1.4 1016.6 0.0000 0.3000
04:17 12.8 11.2 90 219 0.8 1.1 1016.4 0.0000 0.3000
04:28 12.7 11.1 90 227 0.8 1.4 1016.4 0.0000 0.3000
04:38 12.5 10.9 90 227 0.8 1.1 1016.6 0.0000 0.3000
04:48 12.5 11.1 91 225 0.8 1.4 1016.5 0.0000 0.3000
04:57 12.4 11 91 225 0.8 1.1 1016.5 0.0000 0.3000
05:08 12.3 10.9 91 225 0.8 1.4 1016.6 0.0000 0.3000
05:18 12.3 10.9 91 222 0.8 1.4 1016.6 0.0000 0.3000
05:28 12.3 10.9 91 220 0.8 1.4 1016.6 0.0000 0.3000
05:38 12.3 10.9 91 221 0.8 1.4 1016.7 0.0000 0.3000
05:48 12.2 10.8 91 225 0.8 1.4 1016.7 0.0000 0.3000
05:58 12.2 10.8 91 222 0.8 1.4 1016.6 0.0000 0.3000
06:08 12.2 10.8 91 225 0.8 1.1 1016.6 0.0000 0.3000
06:19 12.2 10.8 91 225 0.8 1.4 1016.8 0.0000 0.3000
06:29 12.3 11 92 222 0.8 1.1 1016.8 0.0000 0.3000
06:38 12.6 11.3 92 214 0.8 1.1 1017 0.0000 0.3000
06:49 13.3 12 92 215 0.8 1.4 1016.9 0.0000 0.3000
06:59 14.1 12.7 91 214 0.8 1.1 1016.9 0.0000 0.3000
07:09 15.5 14 91 216 0.8 1.9 1016.8 0.0000 0.3000
07:19 16.7 14.7 88 219 1.1 1.9 1016.7 0.0000 0.3000
07:29 17.3 14.8 85 215 1.1 1.9 1016.7 0.0000 0.3000
07:39 17.8 14.7 82 212 0.8 1.9 1016.7 0.0000 0.3000
07:49 18.2 14.5 79 199 0.8 1.4 1016.6 0.0000 0.3000
07:59 18.9 15.4 80 211 1.1 2.2 1016.8 0.0000 0.3000
08:10 19.2 15.3 78 219 1.1 1.9 1016.5 0.0000 0.3000
08:19 19.2 15.1 77 210 0.8 1.4 1016.4 0.0000 0.3000
08:29 19.1 14.8 76 202 0.8 1.4 1016.3 0.0000 0.3000
08:40 19.4 15.3 77 212 1.1 1.9 1016.4 0.0000 0.3000
08:55 19.7 14.9 74 251 0.8 1.4 1016.3 0.0000 0.3000
09:04 20.2 15.2 73 187 0.8 1.9 1016.3 0.0000 0.3000
09:15 20.6 15.4 72 188 0.8 1.9 1016.3 0.0000 0.3000
09:25 20.4 15.4 73 201 0.8 1.4 1016.3 0.0000 0.3000
09:35 21 15.8 72 206 1.1 2.2 1016.2 0.0000 0.3000
09:45 21.1 16.1 73 270 0.8 1.9 1016.1 0.0000 0.3000
09:55 21.6 16.3 72 198 0.8 1.4 1016 0.0000 0.3000
10:05 21.6 15.9 70 187 1.1 1.9 1015.9 0.0000 0.3000
10:15 22.1 16.8 72 247 1.1 2.5 1015.7 0.0000 0.3000
10:26 22.3 16.3 69 239 0.8 1.9 1015.7 0.0000 0.3000
10:36 22.2 16 68 189 0.8 1.9 1015.7 0.0000 0.3000
10:45 22.6 16.6 69 205 1.1 1.9 1015.5 0.0000 0.3000
10:55 23.1 16.6 67 216 1.1 1.9 1015.5 0.0000 0.3000
11:06 23.4 17.2 68 209 1.1 2.2 1015.5 0.0000 0.3000
11:16 24 17.5 67 208 1.4 2.8 1015.5 0.0000 0.3000
11:26 23.7 16.7 65 222 1.1 2.5 1015.4 0.0000 0.3000
11:36 23.8 17.1 66 221 1.1 1.9 1015.3 0.0000 0.3000
11:46 24.6 17.3 64 208 1.1 2.8 1015.3 0.0000 0.3000
11:56 24.9 16.6 60 212 1.1 3.6 1015.2 0.0000 0.3000
12:06 24.4 15.6 58 16 1.1 2.2 1015 0.0000 0.3000
12:16 24.3 15.5 58 71 1.1 3.3 1014.8 0.1250 0.4000
12:26 24.7 15.9 58 254 1.1 2.2 1014.7 0.1250 0.4000
12:36 24.8 16.5 60 209 1.1 2.5 1014.4 0.1250 0.4000
12:47 25 15.9 57 212 1.1 1.9 1014.4 0.1250 0.4000
12:57 25.1 16 57 174 1.1 2.2 1014.1 0.1250 0.4000
13:06 25.4 16 56 225 1.1 2.2 1014 0.1250 0.4000
13:16 25.7 16.8 58 207 1.4 2.5 1014 0.0000 0.4000
13:27 26.2 16.7 56 204 1.4 2.2 1013.8 0.0000 0.4000
13:37 26.2 17 57 211 1.4 2.5 1013.7 0.0000 0.4000
13:47 26.2 16.5 55 192 0.8 1.9 1013.5 0.0000 0.4000
13:57 25.9 14.7 50 318 1.4 3.3 1013.4 0.0000 0.4000
14:07 25.9 17 58 212 1.1 1.9 1013.2 0.0000 0.4000
14:17 26.4 16.9 56 208 1.4 2.8 1013.1 0.0000 0.4000
14:27 26.4 17.5 58 209 1.1 2.2 1013 0.0000 0.4000
14:38 26.7 17.5 57 208 1.1 1.9 1012.8 0.0000 0.4000
14:47 26.9 16.2 52 195 1.4 2.2 1012.7 0.0000 0.4000
14:57 26.7 16.3 53 261 1.4 2.5 1012.7 0.0000 0.4000
15:08 27 17.2 55 203 1.4 2.2 1012.7 0.0000 0.4000
15:18 26.7 15.7 51 210 1.1 2.5 1012.5 0.0000 0.4000
15:28 26.3 16.3 54 225 1.1 1.9 1012.4 0.0000 0.4000
15:37 26.2 15.6 52 225 1.1 1.9 1012.3 0.0000 0.4000
15:48 26.3 16 53 225 1.1 1.9 1012.2 0.0000 0.4000
15:58 26.3 16 53 218 1.1 2.2 1012.2 0.0000 0.4000
16:08 26.1 16.1 54 203 1.1 1.9 1012 0.0000 0.4000
16:18 25.6 16.2 56 211 1.1 1.9 1011.8 0.0000 0.4000
16:28 25.4 15.7 55 213 1.1 1.9 1011.7 0.0000 0.4000
16:38 25.2 16.1 57 214 1.1 1.9 1011.6 0.0000 0.4000
16:48 25.1 16 57 215 1.1 1.9 1011.6 0.0000 0.4000
16:59 25.1 16 57 216 1.1 1.9 1011.7 0.0000 0.4000
17:08 25 16.4 59 213 1.4 2.2 1011.6 0.0000 0.4000
17:18 25 16.4 59 216 1.4 2.8 1011.6 0.0000 0.4000
17:29 24.9 17.1 62 218 1.1 1.9 1011.7 0.0000 0.4000
17:39 24.8 17 62 215 1.4 2.2 1011.8 0.0000 0.4000
17:49 24.7 16.9 62 215 1.4 2.5 1011.7 0.0000 0.4000
17:58 24.6 17.1 63 217 1.1 2.2 1011.6 0.0000 0.4000
18:09 24.5 17 63 212 1.4 3.3 1011.6 0.0000 0.4000
18:19 24.3 16.8 63 219 1.1 2.2 1011.6 0.0000 0.4000
18:29 24.1 16.9 64 219 1.1 2.5 1011.7 0.0000 0.4000
18:39 23.9 16.7 64 218 1.4 2.2 1011.9 0.0000 0.4000
18:49 23.6 15.6 61 183 1.9 4.4 1012.5 0.0000 0.4000
18:59 22 15.1 65 219 1.4 4.7 1012.7 0.0000 0.4000
19:09 21 14.4 66 205 1.4 3.3 1012.9 0.0000 0.4000
19:20 20.3 14.4 69 210 1.1 2.8 1013 0.0000 0.4000
19:30 19.7 14.3 71 209 1.4 2.8 1013.2 0.0000 0.4000
19:39 19.2 14 72 225 1.4 2.8 1013.2 0.0000 0.4000
19:50 18.9 14.4 75 214 1.1 1.9 1013.5 0.0000 0.4000
20:00 18.6 13.9 74 222 1.4 2.2 1013.4 0.0000 0.4000
20:10 18.4 14.1 76 225 1.1 1.9 1013.5 0.0000 0.4000
20:20 18.2 13.9 76 223 1.1 1.9 1013.7 0.0000 0.4000
20:30 18.2 13.9 76 222 1.1 2.5 1013.8 0.0000 0.4000
20:40 18.1 13.8 76 225 1.4 2.2 1014 0.0000 0.4000
20:50 17.9 14 78 225 1.1 1.9 1014.2 0.0000 0.4000
21:00 17.8 13.9 78 223 1.1 1.9 1014.4 0.0000 0.4000
21:11 17.8 13.9 78 208 1.1 1.9 1014.4 0.0000 0.4000
21:20 17.8 14.1 79 216 1.1 2.5 1014.5 0.0000 0.4000
21:30 17.7 14.2 80 219 1.1 1.9 1014.7 0.0000 0.4000
21:41 17.7 14.2 80 225 1.1 1.9 1014.9 0.0000 0.4000
21:51 17.6 14.1 80 220 1.1 2.2 1015.1 0.0000 0.4000
22:01 17.6 14.1 80 221 1.1 2.2 1015.2 0.0000 0.4000
22:11 17.6 14.1 80 218 1.1 2.2 1015.4 0.0000 0.4000
22:21 17.6 14.1 80 213 1.4 2.8 1015.5 0.0000 0.4000
22:31 17.7 14.4 81 212 1.4 3.6 1015.7 0.0000 0.4000
22:41 17.8 14.5 81 217 1.1 2.8 1015.8 0.0000 0.4000
22:52 17.7 14.6 82 219 1.1 2.2 1015.8 0.0000 0.4000
22:54 17.6 14.7 83 218 1.4 2.8 1015.8 0.3750 0.8000
23:04 17.4 14.7 84 243 0.8 1.4 1015.9 1.2500 1.6000
23:15 17.2 14.5 84 300 0.8 1.9 1016 1.5000 1.9000
23:25 17 14.5 85 315 0.8 1.4 1015.9 1.6250 2.0000
23:35 16.8 14.3 85 329 0.8 1.4 1016 1.7500 2.1000
23:44 16.6 14.4 87 342 0.8 1.9 1015.9 1.8750 2.3000
23:55 16.4 14.2 87 321 0.8 1.4 1016.1 1.0000

DAY STATISTIC

2021-08-03
TEMPERATURE
AVERAGE
19.5
HIGH
27.0
15:08
LOW
12.2
05:48
PRESSURE
AVERAGE
1014.9
HIGH
1017.0
06:38
LOW
1011.6
16:38
DEWPOINT
AVERAGE
14.5
HIGH
17.5
11:16
LOW
10.8
05:48
HUMIDITY
AVERAGE
75
HIGH
92
06:29
LOW
50
13:57
WIND SPEED
AVERAGE
1.0
HIGH
1.9
18:49
WIND GUST
AVERAGE
2.0
HIGH
4.7
18:59
WIND DIRECTION
PREVAILING
SW
80.4%
N
1.4
NE
0.0
E
0.7
SE
0.0
S
11.2
SW
80.4
W
2.8
NW
3.5
PRECIPITATION
RAIN HOUR
1.9
RAIN DAY
2.3
TEMPERATURE (°C)
LOW
12.2
HIGH
27.0
AVERAGE
19.5
PRESSURE (hpa)
LOW
1011.6
HIGH
1017.0
AVERAGE
1014.9
DEVICE